Time;durP1;ratioP1;P1;durP2;ratioP2;P2;SDS_P1;SDS_P2;PMS_P1;PMS_P2;Temp;Humidity;BMP_temperature;BMP_pressure;BME280_temperature;BME280_humidity;BME280_pressure;Samples;Min_cycle;Max_cycle;Signal;HPM_P1;HPM_P2
2021/12/30 00:00:25;;;;;;;44.10;4.70;;;8.80;99.90;;;;;;5072139;28;20043;-77
2021/12/30 00:02:51;;;;;;;31.17;4.45;;;8.80;99.90;;;;;;5073179;28;20158;-76
2021/12/30 00:05:17;;;;;;;26.00;4.47;;;8.80;99.90;;;;;;5055417;28;20127;-77
2021/12/30 00:07:43;;;;;;;30.95;4.18;;;8.80;99.90;;;;;;5072060;28;20044;-77
2021/12/30 00:10:10;;;;;;;34.20;4.70;;;8.70;99.90;;;;;;5072288;28;20042;-71
2021/12/30 00:12:35;;;;;;;26.08;3.75;;;8.70;99.90;;;;;;5056796;28;20040;-77
2021/12/30 00:15:04;;;;;;;28.20;4.43;;;8.60;99.90;;;;;;5072214;28;20039;-73
2021/12/30 00:17:29;;;;;;;29.15;3.55;;;8.60;99.90;;;;;;5052892;28;20052;-72
2021/12/30 00:19:55;;;;;;;35.33;4.40;;;8.50;99.90;;;;;;5056013;28;20067;-76
2021/12/30 00:22:21;;;;;;;34.55;4.90;;;8.50;99.90;;;;;;5072300;28;20048;-76
2021/12/30 00:24:46;;;;;;;33.28;3.80;;;8.50;99.90;;;;;;5058685;28;20105;-77
2021/12/30 00:27:12;;;;;;;30.88;4.45;;;8.50;99.90;;;;;;5052708;28;20433;-82
2021/12/30 00:29:39;;;;;;;29.52;4.60;;;8.40;99.90;;;;;;5085464;28;20040;-72
2021/12/30 00:32:05;;;;;;;32.03;4.30;;;8.40;99.90;;;;;;5072680;28;20044;-78
2021/12/30 00:34:31;;;;;;;31.85;4.50;;;8.40;99.90;;;;;;5072717;28;20071;-78
2021/12/30 00:36:56;;;;;;;31.88;4.53;;;8.40;99.90;;;;;;5071877;28;20055;-78
2021/12/30 00:39:22;;;;;;;36.42;4.20;;;8.30;99.90;;;;;;5072720;28;20040;-78
2021/12/30 00:41:48;;;;;;;27.10;4.20;;;8.30;99.90;;;;;;5072371;28;20471;-78
2021/12/30 00:44:13;;;;;;;31.08;3.75;;;8.20;99.90;;;;;;5072009;28;20424;-78
2021/12/30 00:46:39;;;;;;;36.70;4.85;;;8.20;99.90;;;;;;5072477;28;20101;-78
2021/12/30 00:49:05;;;;;;;34.78;4.38;;;8.20;99.90;;;;;;5072336;28;20055;-76
2021/12/30 00:51:30;;;;;;;30.27;3.97;;;8.10;99.90;;;;;;5071552;28;20048;-77
2021/12/30 00:53:56;;;;;;;38.38;4.63;;;8.10;99.90;;;;;;5055711;28;20396;-78
2021/12/30 00:56:22;;;;;;;26.63;3.85;;;8.10;99.90;;;;;;5072447;28;20396;-78
2021/12/30 00:58:48;;;;;;;29.25;4.68;;;8.10;99.90;;;;;;5071461;28;20036;-71
2021/12/30 01:01:14;;;;;;;38.75;4.75;;;8.10;99.90;;;;;;5074467;28;20048;-71
2021/12/30 01:03:40;;;;;;;33.67;4.20;;;8.20;99.90;;;;;;5075665;28;20143;-77
2021/12/30 01:06:06;;;;;;;30.85;4.38;;;8.20;99.90;;;;;;5076403;28;20089;-78
2021/12/30 01:08:32;;;;;;;27.20;4.68;;;8.10;99.90;;;;;;5059475;28;20032;-77
2021/12/30 01:10:58;;;;;;;24.52;4.13;;;8.20;99.90;;;;;;5075811;28;20105;-72
2021/12/30 01:13:26;;;;;;;29.52;3.83;;;8.10;99.90;;;;;;5055555;28;20040;-76
2021/12/30 01:15:59;;;;;;;25.60;4.13;;;8.10;99.90;;;;;;5061600;28;20044;-75
2021/12/30 01:21:45;;;;;;;35.72;4.10;;;8.00;99.90;;;;;;5027691;28;20108;-76
2021/12/30 01:24:11;;;;;;;29.23;4.20;;;7.90;99.90;;;;;;5075658;28;20083;-75
2021/12/30 01:26:37;;;;;;;29.10;4.50;;;7.90;99.90;;;;;;5075688;28;20082;-76
2021/12/30 01:29:03;;;;;;;25.45;4.28;;;7.80;99.90;;;;;;5058487;28;20505;-75
2021/12/30 01:31:28;;;;;;;27.40;4.28;;;7.80;99.90;;;;;;5075803;28;20043;-73
2021/12/30 01:33:55;;;;;;;39.78;4.50;;;7.80;99.90;;;;;;5075142;28;20067;-75
2021/12/30 01:36:21;;;;;;;33.83;5.45;;;7.90;99.90;;;;;;5075560;28;20059;-75
2021/12/30 01:38:47;;;;;;;42.10;4.95;;;7.90;99.90;;;;;;5075329;28;20083;-76
2021/12/30 01:41:14;;;;;;;30.40;4.35;;;7.80;99.90;;;;;;5093373;28;20382;-75
2021/12/30 01:43:40;;;;;;;34.05;5.25;;;7.90;99.90;;;;;;5059124;28;20082;-76
2021/12/30 01:46:08;;;;;;;34.97;5.32;;;7.80;99.90;;;;;;5074783;28;20087;-74
2021/12/30 01:48:33;;;;;;;45.70;4.50;;;7.80;99.90;;;;;;5069872;28;20404;-75
2021/12/30 01:51:00;;;;;;;36.50;5.43;;;7.80;99.90;;;;;;5054617;28;20087;-74
2021/12/30 01:53:26;;;;;;;32.50;5.53;;;7.90;99.90;;;;;;5038372;28;20056;-75
2021/12/30 01:55:51;;;;;;;42.50;7.68;;;7.90;99.90;;;;;;5054732;28;20481;-77
2021/12/30 01:58:18;;;;;;;37.17;8.07;;;7.90;99.90;;;;;;5055181;28;20052;-73
2021/12/30 02:00:46;;;;;;;45.28;8.68;;;8.00;99.90;;;;;;5054100;28;20036;-77
2021/12/30 02:03:13;;;;;;;45.25;9.75;;;8.00;99.90;;;;;;5055319;28;20060;-75
2021/12/30 02:05:40;;;;;;;45.00;10.23;;;8.20;99.90;;;;;;5054467;28;20044;-75
2021/12/30 02:08:08;;;;;;;50.67;11.45;;;8.20;99.90;;;;;;5055023;28;20040;-75
2021/12/30 02:10:34;;;;;;;47.80;11.95;;;8.30;99.90;;;;;;5054479;28;20120;-76
2021/12/30 02:13:00;;;;;;;53.05;13.32;;;8.40;99.90;;;;;;5037190;28;20044;-76
2021/12/30 02:15:26;;;;;;;49.08;13.93;;;8.40;99.90;;;;;;5053904;28;20562;-75
2021/12/30 02:17:54;;;;;;;43.20;13.15;;;8.50;99.90;;;;;;5054791;28;20072;-76
2021/12/30 02:20:41;;;;;;;53.25;14.10;;;8.50;99.90;;;;;;5054651;28;20144;-76
2021/12/30 02:23:08;;;;;;;49.17;15.02;;;8.50;99.90;;;;;;5034645;28;20053;-75
2021/12/30 02:25:34;;;;;;;56.17;16.73;;;8.60;99.90;;;;;;5070447;28;20070;-76
2021/12/30 02:28:00;;;;;;;55.85;17.17;;;8.70;99.90;;;;;;5070446;28;20052;-78
2021/12/30 02:30:25;;;;;;;57.08;16.27;;;8.60;99.90;;;;;;5072398;28;20033;-76
2021/12/30 02:32:51;;;;;;;62.15;17.02;;;8.70;99.90;;;;;;5054825;28;20063;-76
2021/12/30 02:35:16;;;;;;;58.58;17.35;;;8.70;99.90;;;;;;5071597;28;20055;-76
2021/12/30 02:37:42;;;;;;;54.13;15.82;;;8.70;99.90;;;;;;5054772;28;20480;-77
2021/12/30 02:40:08;;;;;;;59.80;17.55;;;8.80;99.90;;;;;;5024982;28;20123;-73
2021/12/30 02:42:34;;;;;;;48.25;16.75;;;8.80;99.90;;;;;;5034228;28;20486;-73
2021/12/30 02:45:00;;;;;;;54.47;16.90;;;8.80;99.90;;;;;;5053768;28;20128;-77
2021/12/30 02:47:25;;;;;;;43.08;15.95;;;8.90;99.90;;;;;;5053574;28;20401;-76
2021/12/30 02:49:51;;;;;;;57.65;16.25;;;8.90;99.90;;;;;;5052133;28;20084;-76
2021/12/30 02:52:17;;;;;;;55.03;16.52;;;8.90;99.90;;;;;;5037888;28;20052;-76
2021/12/30 02:54:43;;;;;;;58.08;17.88;;;9.00;99.90;;;;;;5053857;28;20041;-76
2021/12/30 02:57:10;;;;;;;49.42;16.15;;;9.00;99.90;;;;;;5054112;28;20144;-76
2021/12/30 02:59:36;;;;;;;53.10;17.48;;;9.00;99.90;;;;;;5054318;28;20401;-75
2021/12/30 03:02:02;;;;;;;43.08;15.88;;;9.10;99.90;;;;;;5053989;28;20055;-75
2021/12/30 03:04:29;;;;;;;54.55;17.00;;;9.20;99.90;;;;;;5052987;28;20083;-74
2021/12/30 03:06:57;;;;;;;53.83;17.30;;;9.20;99.90;;;;;;5054299;28;20473;-76
2021/12/30 03:09:22;;;;;;;65.82;16.27;;;9.20;99.90;;;;;;5053378;28;20044;-75
2021/12/30 03:11:48;;;;;;;60.97;17.20;;;9.20;99.90;;;;;;5053206;28;20419;-74
2021/12/30 03:14:14;;;;;;;49.75;16.33;;;9.30;99.90;;;;;;5053854;28;20528;-74
2021/12/30 03:16:42;;;;;;;48.13;16.98;;;9.30;99.90;;;;;;5053907;28;20080;-74
2021/12/30 03:19:08;;;;;;;48.75;15.18;;;9.30;99.90;;;;;;5053374;28;20493;-74
2021/12/30 03:21:33;;;;;;;56.30;17.08;;;9.30;99.90;;;;;;5037201;28;20089;-74
2021/12/30 03:24:02;;;;;;;46.88;15.02;;;9.40;99.90;;;;;;5053049;28;20136;-73
2021/12/30 03:26:28;;;;;;;55.47;15.98;;;9.40;99.90;;;;;;5053413;28;20405;-70
2021/12/30 03:28:54;;;;;;;57.05;16.23;;;9.40;99.90;;;;;;5036399;28;20040;-75
2021/12/30 03:31:21;;;;;;;55.22;16.38;;;9.40;99.90;;;;;;5052916;28;20079;-73
2021/12/30 03:33:48;;;;;;;54.58;14.85;;;9.40;99.90;;;;;;5053685;28;20497;-72
2021/12/30 03:36:15;;;;;;;55.65;16.35;;;9.40;99.90;;;;;;5053059;28;20045;-76
2021/12/30 03:38:45;;;;;;;63.15;15.50;;;9.50;99.90;;;;;;5036097;28;20190;-76
2021/12/30 03:41:13;;;;;;;45.83;15.52;;;9.50;99.90;;;;;;5053153;28;20052;-76
2021/12/30 03:43:39;;;;;;;53.55;14.82;;;9.50;99.90;;;;;;5053544;28;20128;-76
2021/12/30 03:46:06;;;;;;;46.97;14.15;;;9.50;99.90;;;;;;5052979;28;20032;-76
2021/12/30 03:48:34;;;;;;;48.75;14.73;;;9.50;99.90;;;;;;5058107;28;20060;-74
2021/12/30 03:51:06;;;;;;;57.88;13.93;;;9.60;99.90;;;;;;5043041;28;20106;-73
2021/12/30 03:53:38;;;;;;;45.35;12.63;;;9.60;99.90;;;;;;5052693;28;20413;-75
2021/12/30 03:56:12;;;;;;;56.40;13.73;;;9.70;99.90;;;;;;5060152;28;20040;-72
2021/12/30 03:58:39;;;;;;;50.53;13.27;;;9.70;99.90;;;;;;5053408;28;20131;-71
2021/12/30 04:01:07;;;;;;;50.70;13.80;;;9.70;99.90;;;;;;5059360;28;20097;-74
2021/12/30 04:03:33;;;;;;;46.92;12.93;;;9.80;99.90;;;;;;5065049;28;20135;-75
2021/12/30 04:05:58;;;;;;;48.75;13.13;;;9.90;99.90;;;;;;5063223;28;20462;-73
2021/12/30 04:08:24;;;;;;;57.88;14.57;;;9.90;99.90;;;;;;5062533;28;20456;-74
2021/12/30 04:10:50;;;;;;;54.80;13.23;;;9.90;99.90;;;;;;5064829;28;20044;-75
2021/12/30 04:13:16;;;;;;;52.50;14.32;;;9.90;99.90;;;;;;5056118;28;20127;-75
2021/12/30 04:15:41;;;;;;;59.67;16.25;;;10.00;99.90;;;;;;5052277;28;20127;-74
2021/12/30 04:18:07;;;;;;;65.97;14.82;;;10.00;99.90;;;;;;5055427;28;20435;-75
2021/12/30 04:20:32;;;;;;;63.45;17.23;;;10.00;99.90;;;;;;5044288;28;20461;-76
2021/12/30 04:22:58;;;;;;;62.22;15.75;;;10.10;99.90;;;;;;5052720;28;20072;-76
2021/12/30 04:25:24;;;;;;;58.33;16.33;;;10.10;99.90;;;;;;5073097;28;20040;-76
2021/12/30 04:27:50;;;;;;;59.10;17.30;;;10.20;99.90;;;;;;5058366;28;20083;-75
2021/12/30 04:30:16;;;;;;;53.97;18.92;;;10.20;99.90;;;;;;5062450;28;20095;-76
2021/12/30 04:32:43;;;;;;;70.63;19.35;;;10.20;99.90;;;;;;5052751;28;20109;-76
2021/12/30 04:35:10;;;;;;;75.45;20.42;;;10.20;99.90;;;;;;5071628;28;20048;-76
2021/12/30 04:37:36;;;;;;;70.75;19.92;;;10.20;99.90;;;;;;5057486;28;20536;-74
2021/12/30 04:40:04;;;;;;;65.15;19.27;;;10.30;99.90;;;;;;5074259;28;20040;-74
2021/12/30 04:42:30;;;;;;;68.45;21.10;;;10.20;99.90;;;;;;5057475;28;20059;-74
2021/12/30 04:44:56;;;;;;;75.05;23.13;;;10.30;99.90;;;;;;5056737;28;20044;-74
2021/12/30 04:47:22;;;;;;;48.67;18.70;;;10.30;99.90;;;;;;5057919;28;20052;-73
2021/12/30 04:49:49;;;;;;;43.67;19.17;;;10.30;99.90;;;;;;5054744;28;20056;-73
2021/12/30 04:52:14;;;;;;;50.88;20.80;;;10.30;99.90;;;;;;5076353;28;20177;-72
2021/12/30 04:54:40;;;;;;;47.45;19.73;;;10.30;99.90;;;;;;5076241;28;20143;-76
2021/12/30 04:57:06;;;;;;;46.80;19.60;;;10.40;99.90;;;;;;5072354;28;20048;-76
2021/12/30 04:59:32;;;;;;;54.80;21.77;;;10.40;99.90;;;;;;5047518;28;20040;-75
2021/12/30 05:01:58;;;;;;;49.67;20.67;;;10.40;99.90;;;;;;5059866;28;20062;-72
2021/12/30 05:04:24;;;;;;;55.45;21.80;;;10.40;99.90;;;;;;5091664;28;20039;-76
2021/12/30 05:06:50;;;;;;;58.28;22.23;;;10.50;99.90;;;;;;5076297;28;20102;-75
2021/12/30 05:09:15;;;;;;;49.50;21.00;;;10.50;99.90;;;;;;5065851;28;20123;-74
2021/12/30 05:11:42;;;;;;;46.67;21.15;;;10.50;99.90;;;;;;5058938;28;20043;-73
2021/12/30 05:14:08;;;;;;;54.53;23.20;;;10.50;99.90;;;;;;5076400;28;20040;-74
2021/12/30 05:16:34;;;;;;;54.72;21.48;;;10.50;99.90;;;;;;5076048;28;20044;-74
2021/12/30 05:19:00;;;;;;;52.50;22.05;;;10.50;99.90;;;;;;5075139;28;20051;-73
2021/12/30 05:21:26;;;;;;;55.17;22.83;;;10.60;99.90;;;;;;5075937;28;20048;-73
2021/12/30 05:23:52;;;;;;;65.13;25.33;;;10.60;99.90;;;;;;5075129;28;20465;-71
2021/12/30 05:26:18;;;;;;;69.68;26.85;;;10.70;99.90;;;;;;5075905;28;20028;-74
2021/12/30 05:28:45;;;;;;;64.47;25.88;;;10.70;99.90;;;;;;5075966;28;20044;-74
2021/12/30 05:31:11;;;;;;;64.78;27.02;;;10.70;99.90;;;;;;5058073;28;20814;-74
2021/12/30 05:33:37;;;;;;;64.03;27.08;;;10.80;99.90;;;;;;5059722;28;20052;-74
2021/12/30 05:36:03;;;;;;;72.82;27.48;;;10.80;99.90;;;;;;5075523;28;20071;-73
2021/12/30 05:38:28;;;;;;;62.20;25.80;;;10.80;99.90;;;;;;5057629;28;20040;-73
2021/12/30 05:40:54;;;;;;;82.05;29.15;;;10.80;99.90;;;;;;5075349;28;20051;-74
2021/12/30 05:43:19;;;;;;;74.50;29.73;;;10.90;99.90;;;;;;5058776;28;20084;-73
2021/12/30 05:45:45;;;;;;;85.57;30.08;;;10.90;99.90;;;;;;5058155;28;20047;-75
2021/12/30 05:48:11;;;;;;;83.82;30.55;;;10.90;99.90;;;;;;5074839;28;20110;-74
2021/12/30 05:50:36;;;;;;;101.63;31.27;;;10.90;99.90;;;;;;5075520;28;20182;-74
2021/12/30 05:53:03;;;;;;;107.15;31.15;;;10.90;99.90;;;;;;5074944;28;20079;-74
2021/12/30 05:55:29;;;;;;;99.72;30.02;;;11.00;99.90;;;;;;5075796;28;20128;-73
2021/12/30 05:57:55;;;;;;;84.38;28.38;;;11.00;99.90;;;;;;5074340;28;20048;-74
2021/12/30 06:00:24;;;;;;;90.72;29.25;;;11.00;99.90;;;;;;5074742;28;20044;-74
2021/12/30 06:02:50;;;;;;;94.30;30.20;;;11.00;99.90;;;;;;5074821;28;20051;-73
2021/12/30 06:05:17;;;;;;;70.75;28.05;;;11.00;99.90;;;;;;5058578;28;20040;-75
2021/12/30 06:07:43;;;;;;;80.00;26.88;;;11.10;99.90;;;;;;5056165;28;20046;-74
2021/12/30 06:10:10;;;;;;;81.68;26.73;;;11.10;99.90;;;;;;5075636;28;20151;-73
2021/12/30 06:12:36;;;;;;;82.13;28.25;;;11.10;99.90;;;;;;5074882;28;20036;-75
2021/12/30 06:15:02;;;;;;;72.40;26.13;;;11.10;99.90;;;;;;5092722;28;20044;-74
2021/12/30 06:17:28;;;;;;;72.43;25.38;;;11.20;99.90;;;;;;5092605;28;20044;-75
2021/12/30 06:19:53;;;;;;;70.65;24.90;;;11.20;99.90;;;;;;5058681;28;20047;-75
2021/12/30 06:22:19;;;;;;;63.35;23.48;;;11.20;99.90;;;;;;5073385;28;20051;-74
2021/12/30 06:24:45;;;;;;;71.10;24.48;;;11.20;99.90;;;;;;5075078;28;20123;-75
2021/12/30 06:27:10;;;;;;;60.60;22.63;;;11.20;99.90;;;;;;5057310;28;20048;-75
2021/12/30 06:29:37;;;;;;;56.97;20.77;;;11.30;99.90;;;;;;5058203;28;20040;-75
2021/12/30 06:32:04;;;;;;;45.40;19.95;;;11.30;99.90;;;;;;5074712;28;20055;-73
2021/12/30 06:34:30;;;;;;;61.30;21.05;;;11.30;99.90;;;;;;5090598;28;20039;-70
2021/12/30 06:36:55;;;;;;;53.55;20.52;;;11.30;99.90;;;;;;5057240;28;20594;-75
2021/12/30 06:39:21;;;;;;;54.47;19.98;;;11.40;99.90;;;;;;5074892;28;20086;-73
2021/12/30 06:41:47;;;;;;;59.53;21.45;;;11.40;99.90;;;;;;5072771;28;20378;-74
2021/12/30 06:44:12;;;;;;;53.22;20.27;;;11.40;99.90;;;;;;5074892;28;20396;-75
2021/12/30 06:46:39;;;;;;;57.60;19.38;;;11.30;99.90;;;;;;5074197;28;20044;-69
2021/12/30 06:49:08;;;;;;;47.25;18.10;;;11.30;99.90;;;;;;5074311;28;20060;-69
2021/12/30 06:51:35;;;;;;;45.30;16.90;;;11.30;99.90;;;;;;5073879;28;20040;-73
2021/12/30 06:54:01;;;;;;;36.65;15.85;;;11.30;99.90;;;;;;5074460;28;20122;-69
2021/12/30 06:56:27;;;;;;;38.30;14.77;;;11.30;99.90;;;;;;5073582;28;20492;-70
2021/12/30 06:58:52;;;;;;;33.05;14.63;;;11.40;99.90;;;;;;5073388;28;20186;-70
2021/12/30 07:01:18;;;;;;;30.08;12.70;;;11.40;99.90;;;;;;5072817;28;20059;-71
2021/12/30 07:03:44;;;;;;;34.30;13.05;;;11.40;99.90;;;;;;5073232;28;20500;-76
2021/12/30 07:06:11;;;;;;;27.30;11.80;;;11.40;99.90;;;;;;5073647;28;20036;-76
2021/12/30 07:08:37;;;;;;;30.85;11.07;;;11.40;99.90;;;;;;5073729;28;20036;-76
2021/12/30 07:11:03;;;;;;;26.98;10.20;;;11.40;99.90;;;;;;5072912;28;20115;-76
2021/12/30 07:13:29;;;;;;;20.33;8.20;;;11.40;99.90;;;;;;5057323;28;20044;-71
2021/12/30 07:15:54;;;;;;;15.52;6.82;;;11.40;99.90;;;;;;5056533;28;20047;-77
2021/12/30 07:18:20;;;;;;;14.10;6.05;;;11.50;99.90;;;;;;5072970;28;20058;-73
2021/12/30 07:20:45;;;;;;;16.42;6.30;;;11.40;99.90;;;;;;5073645;28;20040;-75
2021/12/30 07:23:11;;;;;;;15.43;6.47;;;11.40;99.90;;;;;;5073544;28;20085;-80
2021/12/30 07:25:37;;;;;;;13.65;6.00;;;11.50;99.90;;;;;;5073601;28;20078;-75
2021/12/30 07:28:03;;;;;;;13.60;5.53;;;11.40;99.90;;;;;;5072405;28;20044;-78
2021/12/30 07:30:30;;;;;;;11.15;5.72;;;11.40;99.90;;;;;;5073350;28;20040;-70
2021/12/30 07:32:56;;;;;;;14.45;5.70;;;11.40;99.90;;;;;;5073074;28;20480;-77
2021/12/30 07:35:22;;;;;;;12.10;5.47;;;11.40;99.90;;;;;;5072945;28;20040;-75
2021/12/30 07:37:50;;;;;;;12.65;5.45;;;11.40;99.90;;;;;;5072555;28;20047;-73
2021/12/30 07:40:16;;;;;;;10.52;5.03;;;11.40;99.90;;;;;;5073339;28;20040;-77
2021/12/30 07:42:42;;;;;;;9.15;4.88;;;11.40;99.90;;;;;;5072466;28;20515;-79
2021/12/30 07:45:09;;;;;;;14.18;5.72;;;11.50;99.90;;;;;;5073592;28;20048;-72
2021/12/30 07:47:36;;;;;;;10.80;5.97;;;11.50;99.90;;;;;;5073172;28;20096;-69
2021/12/30 07:50:02;;;;;;;11.27;6.22;;;11.50;99.90;;;;;;5073520;28;20138;-79
2021/12/30 07:52:28;;;;;;;11.57;7.25;;;11.50;99.90;;;;;;5072129;28;20059;-69
2021/12/30 07:54:54;;;;;;;12.77;6.95;;;11.50;99.90;;;;;;5073424;28;20051;-81
2021/12/30 07:57:23;;;;;;;11.73;7.50;;;11.50;99.90;;;;;;5072753;28;20476;-80
2021/12/30 07:59:52;;;;;;;14.00;8.82;;;11.60;99.90;;;;;;5055939;28;20059;-72
2021/12/30 08:02:19;;;;;;;13.00;9.82;;;11.60;99.90;;;;;;5055696;28;20055;-77
2021/12/30 08:04:45;;;;;;;15.82;11.68;;;11.60;99.90;;;;;;5046255;28;20047;-76
2021/12/30 08:07:11;;;;;;;21.30;12.35;;;11.60;99.90;;;;;;5055504;28;20044;-75
2021/12/30 08:09:36;;;;;;;20.35;14.00;;;11.70;99.90;;;;;;5073419;28;20055;-77
2021/12/30 08:12:02;;;;;;;19.70;14.52;;;11.70;99.90;;;;;;5072644;28;20408;-80
2021/12/30 08:14:28;;;;;;;20.63;15.30;;;11.70;99.90;;;;;;5072599;28;20466;-70
2021/12/30 08:16:54;;;;;;;27.45;15.73;;;11.70;99.90;;;;;;5072639;28;20124;-79
2021/12/30 08:19:20;;;;;;;25.88;16.30;;;11.70;99.90;;;;;;5072029;28;20048;-79
2021/12/30 08:21:46;;;;;;;23.13;15.45;;;11.70;99.90;;;;;;5055315;28;20100;-76
2021/12/30 08:24:12;;;;;;;19.80;15.40;;;11.80;99.90;;;;;;5072118;28;20040;-80
2021/12/30 08:26:39;;;;;;;19.52;13.60;;;11.80;99.90;;;;;;5073084;28;20430;-79
2021/12/30 08:29:05;;;;;;;18.45;11.45;;;11.80;99.90;;;;;;5071561;28;20127;-75
2021/12/30 08:31:33;;;;;;;18.33;11.57;;;11.90;99.90;;;;;;5072278;28;20040;-77
2021/12/30 08:33:59;;;;;;;16.88;10.07;;;11.90;99.90;;;;;;5071575;28;20525;-72
2021/12/30 08:36:25;;;;;;;15.82;7.05;;;12.00;99.90;;;;;;5072118;28;20040;-79
2021/12/30 08:38:50;;;;;;;10.48;5.22;;;12.00;99.90;;;;;;5070931;28;20131;-71
2021/12/30 08:41:16;;;;;;;10.13;3.85;;;12.00;99.90;;;;;;5071018;28;20488;-78
2021/12/30 08:43:42;;;;;;;6.55;2.97;;;12.10;99.90;;;;;;5072178;28;20052;-79
2021/12/30 08:46:07;;;;;;;8.45;3.13;;;12.20;99.90;;;;;;5055578;28;20036;-78
2021/12/30 08:48:33;;;;;;;9.05;2.58;;;12.30;99.90;;;;;;5053680;28;20417;-77
2021/12/30 08:50:59;;;;;;;6.60;2.17;;;12.30;99.90;;;;;;5063437;28;20049;-76
2021/12/30 08:53:25;;;;;;;11.93;2.65;;;12.30;99.90;;;;;;5072744;28;20044;-77
2021/12/30 08:55:52;;;;;;;4.72;1.95;;;12.40;99.90;;;;;;5054246;28;20136;-74
2021/12/30 08:58:18;;;;;;;10.35;2.38;;;12.40;99.90;;;;;;5072104;28;20162;-73
2021/12/30 09:00:47;;;;;;;7.28;2.03;;;12.40;99.90;;;;;;5072196;28;20055;-77
2021/12/30 09:03:13;;;;;;;4.40;2.17;;;12.40;99.90;;;;;;5071105;28;20071;-73
2021/12/30 09:05:39;;;;;;;7.38;2.78;;;12.40;99.90;;;;;;5071734;28;20393;-75
2021/12/30 09:08:06;;;;;;;8.05;3.25;;;12.40;99.90;;;;;;5072385;28;20065;-78
2021/12/30 09:10:37;;;;;;;7.95;4.00;;;12.40;99.90;;;;;;5055283;28;20040;-76
2021/12/30 09:13:03;;;;;;;6.75;3.08;;;12.40;99.90;;;;;;5070596;28;20152;-76
2021/12/30 09:15:29;;;;;;;6.68;3.80;;;12.40;99.90;;;;;;5053991;28;20032;-73
2021/12/30 09:17:56;;;;;;;8.80;4.80;;;12.40;99.90;;;;;;5070789;28;20050;-76
2021/12/30 09:20:23;;;;;;;10.23;5.75;;;12.40;99.90;;;;;;5055371;28;20094;-76
2021/12/30 09:22:50;;;;;;;9.02;5.63;;;12.40;99.90;;;;;;5056647;28;20369;-73
2021/12/30 09:25:19;;;;;;;6.85;4.50;;;12.40;99.90;;;;;;5074864;28;20051;-76
2021/12/30 09:27:45;;;;;;;10.40;5.70;;;12.40;99.90;;;;;;5074656;28;20044;-77
2021/12/30 09:30:12;;;;;;;9.52;4.90;;;12.50;99.90;;;;;;5070249;28;20456;-76
2021/12/30 09:32:39;;;;;;;10.75;5.35;;;12.50;99.90;;;;;;5074500;28;20048;-73
2021/12/30 09:35:06;;;;;;;8.20;4.90;;;12.50;99.90;;;;;;5075821;28;20377;-74
2021/12/30 09:37:31;;;;;;;7.68;4.47;;;12.40;99.90;;;;;;5074356;28;20105;-75
2021/12/30 09:39:59;;;;;;;13.25;4.68;;;12.40;99.90;;;;;;5075637;28;20044;-73
2021/12/30 09:42:24;;;;;;;9.63;4.70;;;12.40;99.90;;;;;;5075304;28;20460;-76
2021/12/30 09:44:50;;;;;;;7.78;4.28;;;12.40;99.90;;;;;;5074706;28;20040;-76
2021/12/30 09:47:16;;;;;;;9.77;5.07;;;12.40;99.90;;;;;;5072490;28;20055;-74
2021/12/30 09:49:42;;;;;;;10.38;4.13;;;12.40;99.90;;;;;;5074456;28;20060;-75
2021/12/30 09:52:07;;;;;;;11.23;4.90;;;12.40;99.90;;;;;;5075107;28;20040;-76
2021/12/30 09:54:33;;;;;;;11.32;4.07;;;12.40;99.90;;;;;;5058439;28;20048;-76
2021/12/30 09:56:59;;;;;;;12.60;4.28;;;12.40;99.90;;;;;;5074482;28;20047;-77
2021/12/30 09:59:26;;;;;;;10.35;4.70;;;12.40;99.90;;;;;;5057392;28;20607;-75
2021/12/30 10:01:52;;;;;;;11.82;5.28;;;12.40;99.90;;;;;;5074135;28;20051;-76
2021/12/30 10:04:18;;;;;;;12.13;4.57;;;12.40;99.90;;;;;;5074740;28;20040;-76
2021/12/30 10:06:47;;;;;;;17.02;4.63;;;12.40;99.90;;;;;;5054633;28;20062;-76
2021/12/30 10:09:15;;;;;;;10.77;3.75;;;12.40;99.90;;;;;;5072940;28;20040;-73
2021/12/30 10:11:45;;;;;;;12.23;3.75;;;12.50;99.90;;;;;;5057990;28;20036;-72
2021/12/30 10:14:11;;;;;;;16.25;4.10;;;12.50;99.90;;;;;;5073927;28;20044;-75
2021/12/30 10:16:36;;;;;;;12.98;3.70;;;12.50;99.90;;;;;;5073496;28;20063;-75
2021/12/30 10:19:05;;;;;;;13.43;3.72;;;12.50;99.90;;;;;;5072774;28;20392;-75
2021/12/30 10:21:31;;;;;;;16.40;3.50;;;12.50;99.90;;;;;;5074762;28;20798;-74
2021/12/30 10:23:59;;;;;;;15.20;3.40;;;12.50;99.90;;;;;;5075017;28;20044;-75
2021/12/30 10:26:25;;;;;;;10.60;2.67;;;12.50;99.90;;;;;;5057018;28;20067;-76
2021/12/30 10:28:57;;;;;;;12.23;3.22;;;12.60;99.90;;;;;;5068926;28;20400;-74
2021/12/30 10:31:25;;;;;;;16.35;3.53;;;12.50;99.90;;;;;;5073841;28;20617;-74
2021/12/30 10:34:06;;;;;;;10.48;2.85;;;12.50;99.90;;;;;;5072855;28;20052;-75
2021/12/30 10:36:33;;;;;;;13.45;3.28;;;12.50;99.90;;;;;;5074833;28;20055;-75
2021/12/30 10:39:22;;;;;;;14.63;2.78;;;12.50;99.90;;;;;;5053437;28;20055;-72
2021/12/30 10:41:53;;;;;;;18.63;3.50;;;12.50;99.90;;;;;;5037790;28;20041;-73
2021/12/30 10:44:19;;;;;;;22.58;3.78;;;12.50;99.90;;;;;;5072534;28;20051;-76
2021/12/30 10:46:49;;;;;;;15.07;2.80;;;12.50;99.90;;;;;;5056687;28;20032;-73
2021/12/30 10:49:26;;;;;;;17.25;3.58;;;12.50;99.90;;;;;;5057358;28;20404;-76
2021/12/30 10:51:53;;;;;;;21.67;4.03;;;12.60;99.90;;;;;;5056260;28;20044;-75
2021/12/30 10:54:25;;;;;;;19.55;3.63;;;12.60;99.90;;;;;;5072124;28;20047;-73
2021/12/30 10:57:07;;;;;;;17.42;3.67;;;12.50;99.90;;;;;;5074099;28;20052;-75
2021/12/30 10:59:42;;;;;;;18.45;3.47;;;12.50;99.90;;;;;;5055074;28;20193;-75
2021/12/30 11:02:18;;;;;;;19.10;4.00;;;12.50;99.90;;;;;;5071890;28;20032;-74
2021/12/30 11:04:45;;;;;;;21.05;4.20;;;12.50;99.90;;;;;;5073616;28;20082;-75
2021/12/30 11:07:19;;;;;;;23.17;3.70;;;12.50;99.90;;;;;;5073044;28;20408;-74
2021/12/30 11:09:51;;;;;;;26.65;4.35;;;12.50;99.90;;;;;;5072282;28;20047;-77
2021/12/30 11:12:27;;;;;;;20.90;4.03;;;12.50;99.90;;;;;;5071326;28;20782;-74
2021/12/30 11:14:54;;;;;;;17.58;4.82;;;12.50;99.90;;;;;;5067342;28;20048;-73
2021/12/30 11:17:24;;;;;;;21.45;3.95;;;12.50;99.90;;;;;;5064503;28;20051;-73
2021/12/30 11:20:00;;;;;;;21.98;4.03;;;12.50;99.90;;;;;;5069335;28;20046;-76
2021/12/30 11:22:28;;;;;;;18.08;3.65;;;12.50;99.90;;;;;;5054154;28;20483;-75
2021/12/30 11:24:57;;;;;;;20.30;3.45;;;12.50;99.90;;;;;;5073488;28;20052;-73
2021/12/30 11:27:24;;;;;;;14.23;2.70;;;12.50;99.90;;;;;;5073321;28;20047;-74
2021/12/30 11:29:52;;;;;;;19.70;4.03;;;12.50;99.90;;;;;;5073279;28;20457;-75
2021/12/30 11:32:22;;;;;;;17.52;2.83;;;12.50;99.90;;;;;;5072875;28;20423;-73
2021/12/30 11:34:51;;;;;;;19.52;3.60;;;12.60;99.90;;;;;;5054907;28;20492;-77
2021/12/30 11:37:18;;;;;;;18.67;3.53;;;12.60;99.90;;;;;;5056827;28;20508;-75
2021/12/30 11:39:50;;;;;;;16.33;3.10;;;12.60;99.90;;;;;;5073449;28;20040;-73
2021/12/30 11:42:26;;;;;;;12.45;2.60;;;12.60;99.90;;;;;;5055856;28;20048;-76
2021/12/30 11:44:54;;;;;;;14.45;2.78;;;12.60;99.90;;;;;;5072139;28;20059;-75
2021/12/30 11:47:33;;;;;;;20.70;3.40;;;12.60;99.90;;;;;;5077633;28;20417;-74
2021/12/30 11:50:12;;;;;;;16.77;3.28;;;12.60;99.90;;;;;;5069175;28;20087;-74
2021/12/30 11:52:53;;;;;;;22.90;3.30;;;12.70;99.90;;;;;;5051918;28;20139;-75
2021/12/30 11:55:41;;;;;;;18.67;2.75;;;12.70;99.90;;;;;;5073031;28;20083;-73
2021/12/30 11:58:41;;;;;;;11.50;2.42;;;12.70;99.90;;;;;;5072310;28;20048;-75
2021/12/30 12:01:17;;;;;;;17.17;2.63;;;12.70;99.90;;;;;;5073635;28;20127;-75
2021/12/30 12:03:56;;;;;;;15.05;2.58;;;12.80;99.90;;;;;;5058464;28;20040;-75
2021/12/30 12:06:27;;;;;;;16.08;3.30;;;12.80;99.90;;;;;;5071398;28;20048;-75
2021/12/30 12:08:57;;;;;;;16.47;3.77;;;12.80;99.90;;;;;;5073183;28;20040;-76
2021/12/30 12:11:26;;;;;;;14.40;3.03;;;12.80;99.90;;;;;;5055157;28;20447;-76
2021/12/30 12:13:56;;;;;;;17.33;3.17;;;12.80;99.90;;;;;;5054707;28;20156;-77
2021/12/30 12:16:41;;;;;;;15.15;3.17;;;12.80;99.90;;;;;;5071611;28;20134;-71
2021/12/30 12:19:08;;;;;;;15.57;3.00;;;12.90;99.90;;;;;;5072823;28;20040;-77
2021/12/30 12:21:49;;;;;;;14.40;2.92;;;12.80;99.90;;;;;;5072760;28;20055;-77
2021/12/30 12:24:20;;;;;;;15.30;2.70;;;12.90;99.90;;;;;;5072593;28;20047;-78
2021/12/30 12:26:51;;;;;;;17.58;2.95;;;12.90;99.90;;;;;;5071970;28;20119;-78
2021/12/30 12:29:23;;;;;;;14.73;2.40;;;13.00;99.90;;;;;;5073204;28;20060;-80
2021/12/30 12:31:59;;;;;;;20.23;3.40;;;13.00;99.90;;;;;;5071737;28;20519;-72
2021/12/30 12:34:53;;;;;;;15.88;3.33;;;13.00;99.90;;;;;;5091157;28;20055;-80
2021/12/30 12:37:37;;;;;;;15.98;2.92;;;13.00;99.90;;;;;;5070591;28;20119;-72
2021/12/30 12:40:20;;;;;;;19.50;3.20;;;13.10;99.90;;;;;;5072297;28;20123;-78